Time;durP1;ratioP1;P1;durP2;ratioP2;P2;SDS_P1;SDS_P2;PMS_P1;PMS_P2;Temp;Humidity;BMP_temperature;BMP_pressure;BME280_temperature;BME280_humidity;BME280_pressure;Samples;Min_cycle;Max_cycle;Signal;HPM_P1;HPM_P2
2023/05/02 00:00:15;;;;;;;10.52;5.90;;;;;;;7.70;100.00;96004.38;1014719;29;20466;-73
2023/05/02 00:00:46;;;;;;;9.38;6.10;;;;;;;7.72;100.00;96004.94;1018822;29;20103;-73
2023/05/02 00:01:16;;;;;;;9.57;5.97;;;;;;;7.69;100.00;96001.00;1018548;29;20080;-75
2023/05/02 00:01:47;;;;;;;9.43;5.80;;;;;;;7.70;100.00;96001.78;1021140;28;20485;-73
2023/05/02 00:02:17;;;;;;;7.85;5.72;;;;;;;7.70;100.00;96007.78;1022590;28;20389;-73
2023/05/02 00:02:48;;;;;;;9.40;5.68;;;;;;;7.66;100.00;96001.47;1022097;29;20114;-74
2023/05/02 00:03:19;;;;;;;11.23;6.72;;;;;;;7.67;100.00;96000.41;1022895;28;20437;-73
2023/05/02 00:03:49;;;;;;;8.13;5.45;;;;;;;7.67;100.00;96005.66;1022585;28;20401;-74
2023/05/02 00:04:20;;;;;;;9.90;6.03;;;;;;;7.67;100.00;96005.66;1026432;28;20026;-73
2023/05/02 00:04:50;;;;;;;7.47;5.43;;;;;;;7.69;100.00;96001.00;1026454;28;20030;-75
2023/05/02 00:05:21;;;;;;;8.20;5.95;;;;;;;7.68;100.00;95998.59;1022673;28;20055;-74
2023/05/02 00:05:51;;;;;;;8.93;5.55;;;;;;;7.66;100.00;95996.25;1022565;28;20082;-73
2023/05/02 00:06:21;;;;;;;9.52;5.90;;;;;;;7.69;100.00;96006.22;1022468;29;20015;-73
2023/05/02 00:06:52;;;;;;;9.77;6.18;;;;;;;7.69;100.00;96005.44;1018440;29;20015;-74
2023/05/02 00:07:22;;;;;;;8.80;5.97;;;;;;;7.66;100.00;96001.47;1018770;29;20030;-75
2023/05/02 00:07:53;;;;;;;8.57;5.35;;;;;;;7.69;100.00;96001.00;1014516;29;20507;-74
2023/05/02 00:08:23;;;;;;;11.77;6.35;;;;;;;7.62;100.00;95997.75;1022460;29;20020;-75
2023/05/02 00:08:54;;;;;;;10.40;5.97;;;;;;;7.66;100.00;96001.47;1025801;28;20025;-75
2023/05/02 00:09:25;;;;;;;9.30;5.65;;;;;;;7.66;100.00;96000.66;1030366;28;20023;-74
2023/05/02 00:09:55;;;;;;;8.85;5.93;;;;;;;7.62;100.00;95996.97;1022358;28;20019;-73
2023/05/02 00:10:26;;;;;;;8.43;5.65;;;;;;;7.66;100.00;96000.66;1018624;29;20028;-74
2023/05/02 00:10:56;;;;;;;8.00;5.47;;;;;;;7.65;100.00;95999.09;1018688;28;20378;-75
2023/05/02 00:11:27;;;;;;;8.68;5.25;;;;;;;7.65;100.00;96004.31;1022392;28;20023;-74
2023/05/02 00:11:57;;;;;;;12.85;6.93;;;;;;;7.64;100.00;96003.50;1026660;28;20388;-74
2023/05/02 00:12:28;;;;;;;8.25;5.68;;;;;;;7.61;100.00;95998.75;1026447;28;20492;-74
2023/05/02 00:12:58;;;;;;;8.80;5.57;;;;;;;7.64;100.00;96000.91;1030460;28;20022;-73
2023/05/02 00:13:29;;;;;;;8.65;5.75;;;;;;;7.65;100.00;96002.50;1026398;28;20030;-73
2023/05/02 00:13:59;;;;;;;9.30;5.82;;;;;;;7.65;100.00;96005.09;1018412;29;20386;-75
2023/05/02 00:14:30;;;;;;;10.32;6.50;;;;;;;7.66;100.00;96000.66;1018789;29;20023;-74
2023/05/02 00:15:00;;;;;;;8.15;5.78;;;;;;;7.66;100.00;96001.47;1022159;28;20020;-73
2023/05/02 00:15:31;;;;;;;8.90;5.60;;;;;;;7.65;100.00;95999.88;1030627;28;20137;-75
2023/05/02 00:16:01;;;;;;;8.82;5.38;;;;;;;7.65;100.00;96006.94;1030320;28;20023;-74
2023/05/02 00:16:31;;;;;;;8.98;5.80;;;;;;;7.65;100.00;96006.94;1030278;28;20030;-74
2023/05/02 00:17:02;;;;;;;9.45;6.00;;;;;;;7.65;100.00;96002.50;1026505;28;20023;-73
2023/05/02 00:17:32;;;;;;;9.32;5.53;;;;;;;7.64;100.00;96000.91;1026467;28;20038;-74
2023/05/02 00:18:03;;;;;;;10.73;5.78;;;;;;;7.64;100.00;96003.50;1030565;28;20023;-74
2023/05/02 00:18:33;;;;;;;9.25;6.10;;;;;;;7.63;100.00;95999.31;1034242;28;20073;-73
2023/05/02 00:19:04;;;;;;;7.45;5.10;;;;;;;7.60;100.00;95994.56;1034465;28;20399;-74
2023/05/02 00:19:38;;;;;;;8.55;5.55;;;;;;;7.63;100.00;96006.38;1034424;28;20032;-73
2023/05/02 00:20:10;;;;;;;8.82;5.43;;;;;;;7.56;100.00;95986.41;1030236;28;20031;-73
2023/05/02 00:20:41;;;;;;;10.27;6.07;;;;;;;7.60;100.00;95993.78;1022358;29;20353;-73
2023/05/02 00:21:11;;;;;;;8.75;5.85;;;;;;;7.65;100.00;95999.88;1022365;29;20780;-73
2023/05/02 00:21:42;;;;;;;7.90;5.50;;;;;;;7.64;100.00;96002.72;1022330;29;20023;-75
2023/05/02 00:22:12;;;;;;;8.32;5.30;;;;;;;7.64;100.00;96008.72;1022464;29;20031;-74
2023/05/02 00:22:43;;;;;;;8.00;5.78;;;;;;;7.64;100.00;96000.09;1014881;29;20039;-73
2023/05/02 00:23:13;;;;;;;8.77;5.82;;;;;;;7.57;100.00;95993.22;1018403;29;20622;-75
2023/05/02 00:23:44;;;;;;;9.20;6.07;;;;;;;7.61;100.00;95998.75;1022739;28;20493;-73
2023/05/02 00:24:16;;;;;;;7.78;5.40;;;;;;;7.57;100.00;95997.66;1030250;28;20077;-74
2023/05/02 00:24:46;;;;;;;10.20;5.55;;;;;;;7.61;100.00;96009.19;1024249;28;20031;-73
2023/05/02 00:25:17;;;;;;;8.00;5.85;;;;;;;7.57;100.00;95997.66;1018838;29;20510;-75
2023/05/02 00:25:48;;;;;;;8.70;5.20;;;;;;;7.61;100.00;96003.97;1026333;28;20082;-75
2023/05/02 00:26:18;;;;;;;7.90;5.38;;;;;;;7.62;100.00;96004.78;1026632;28;20169;-73
2023/05/02 00:26:48;;;;;;;9.30;5.18;;;;;;;7.61;100.00;96003.97;1034538;28;20018;-73
2023/05/02 00:27:19;;;;;;;9.25;5.88;;;;;;;7.58;100.00;95999.25;1034566;28;20486;-74
2023/05/02 00:27:50;;;;;;;12.10;6.43;;;;;;;7.58;100.00;96004.47;1030500;28;20037;-74
2023/05/02 00:28:20;;;;;;;8.77;5.60;;;;;;;7.58;100.00;96004.47;1034093;28;20076;-74
2023/05/02 00:28:51;;;;;;;9.63;5.93;;;;;;;7.60;100.00;96009.44;1029670;28;20125;-73
2023/05/02 00:29:21;;;;;;;8.73;5.57;;;;;;;7.59;100.00;96010.47;1030544;28;20029;-74
2023/05/02 00:29:52;;;;;;;11.98;6.05;;;;;;;7.56;100.00;96007.31;1030288;28;20026;-74
2023/05/02 00:30:23;;;;;;;9.18;5.55;;;;;;;7.56;100.00;96007.31;1030298;28;20031;-73
2023/05/02 00:30:53;;;;;;;8.52;5.55;;;;;;;7.56;100.00;96006.53;1030504;28;20754;-74
2023/05/02 00:31:24;;;;;;;9.25;5.45;;;;;;;7.57;100.00;96008.09;1030708;28;20113;-74
2023/05/02 00:31:55;;;;;;;8.38;5.97;;;;;;;7.55;100.00;96010.16;1038485;28;20013;-74
2023/05/02 00:32:26;;;;;;;9.10;5.65;;;;;;;7.49;100.00;95995.44;1034647;28;20014;-73
2023/05/02 00:32:57;;;;;;;6.95;5.22;;;;;;;7.56;100.00;96006.53;1038480;28;20712;-73
2023/05/02 00:33:27;;;;;;;8.32;5.35;;;;;;;7.55;100.00;96008.34;1030288;28;20057;-75
2023/05/02 00:33:57;;;;;;;8.73;5.72;;;;;;;7.55;100.00;96010.16;1030166;28;20022;-74
2023/05/02 00:34:29;;;;;;;9.93;6.03;;;;;;;7.54;100.00;96006.78;1026304;28;20027;-74
2023/05/02 00:35:00;;;;;;;9.25;5.20;;;;;;;7.53;100.00;96009.59;1023221;28;20584;-75
2023/05/02 00:35:32;;;;;;;9.15;5.68;;;;;;;7.54;100.00;96008.56;1026284;28;20307;-73
2023/05/02 00:36:02;;;;;;;9.98;5.78;;;;;;;7.53;100.00;96013.00;1022617;28;20019;-74
2023/05/02 00:36:33;;;;;;;8.25;5.50;;;;;;;7.52;100.00;96013.25;1018396;29;20369;-73
2023/05/02 00:37:03;;;;;;;8.82;5.70;;;;;;;7.48;100.00;95999.09;1018308;29;20702;-75
2023/05/02 00:37:34;;;;;;;7.85;5.63;;;;;;;7.52;100.00;96008.03;1022605;28;20151;-74
2023/05/02 00:38:05;;;;;;;11.23;5.82;;;;;;;7.47;100.00;96000.09;1026326;28;20544;-72
2023/05/02 00:38:35;;;;;;;8.98;5.85;;;;;;;7.44;100.00;96000.56;1017689;29;20272;-74
2023/05/02 00:39:06;;;;;;;11.57;6.05;;;;;;;7.50;100.00;96008.25;1018174;29;20031;-73
2023/05/02 00:39:37;;;;;;;8.80;5.93;;;;;;;7.49;100.00;96001.44;1018443;29;20028;-73
2023/05/02 00:40:07;;;;;;;9.45;5.90;;;;;;;7.49;100.00;96005.88;1022370;28;20030;-74
2023/05/02 00:40:47;;;;;;;8.65;5.65;;;;;;;7.44;100.00;96008.41;1026612;28;20026;-73
2023/05/02 00:41:18;;;;;;;10.70;5.78;;;;;;;7.49;100.00;96005.88;1034281;28;20529;-75
2023/05/02 00:41:48;;;;;;;8.85;5.45;;;;;;;7.42;100.00;96000.03;1035990;28;20036;-73
2023/05/02 00:42:19;;;;;;;6.95;5.43;;;;;;;7.45;100.00;96005.56;1032406;28;20128;-73
2023/05/02 00:42:49;;;;;;;7.40;5.60;;;;;;;7.43;100.00;96002.38;1026472;28;20034;-73
2023/05/02 00:43:20;;;;;;;9.45;6.10;;;;;;;7.39;100.00;96003.09;1022309;29;20066;-74
2023/05/02 00:43:50;;;;;;;9.82;5.80;;;;;;;7.43;100.00;96005.00;1020905;28;20035;-73
2023/05/02 00:44:21;;;;;;;11.98;5.95;;;;;;;7.43;100.00;96009.44;1030322;28;20061;-74
2023/05/02 00:44:52;;;;;;;9.77;5.85;;;;;;;7.41;100.00;96006.25;1034327;28;20061;-73
2023/05/02 00:45:22;;;;;;;7.63;5.57;;;;;;;7.39;100.00;96009.13;1029882;28;20077;-73
2023/05/02 00:45:53;;;;;;;10.38;5.95;;;;;;;7.38;100.00;96004.09;1022510;29;20024;-73
2023/05/02 00:46:23;;;;;;;9.10;5.03;;;;;;;7.39;100.00;96006.50;1014466;29;20024;-74
2023/05/02 00:46:54;;;;;;;10.75;5.82;;;;;;;7.38;100.00;96009.34;1014954;29;20721;-74
2023/05/02 00:47:25;;;;;;;8.88;5.68;;;;;;;7.38;100.00;96004.09;1018490;29;20036;-74
2023/05/02 00:47:55;;;;;;;7.82;5.00;;;;;;;7.31;100.00;96005.06;1022957;28;20271;-74
2023/05/02 00:48:26;;;;;;;10.65;6.13;;;;;;;7.35;100.00;96004.59;1022703;28;20027;-74
2023/05/02 00:48:57;;;;;;;7.80;5.32;;;;;;;7.34;100.00;96006.41;1021698;28;20321;-74
2023/05/02 00:49:27;;;;;;;8.70;5.40;;;;;;;7.36;100.00;96008.78;1022110;29;20586;-75
2023/05/02 00:49:59;;;;;;;8.80;5.38;;;;;;;7.31;100.00;95994.63;1018827;29;20032;-75
2023/05/02 00:50:30;;;;;;;8.38;5.50;;;;;;;7.35;100.00;96007.22;1019456;28;20532;-75
2023/05/02 00:51:03;;;;;;;9.65;5.55;;;;;;;7.32;100.00;96006.66;1022472;28;20305;-74
2023/05/02 00:51:34;;;;;;;9.23;5.78;;;;;;;7.35;100.00;96004.59;1018247;29;20032;-74
2023/05/02 00:52:04;;;;;;;9.13;5.78;;;;;;;7.35;100.00;96007.22;1022455;28;20266;-74
2023/05/02 00:52:36;;;;;;;8.20;5.97;;;;;;;7.34;100.00;96006.41;1026402;28;20611;-74
2023/05/02 00:53:07;;;;;;;8.68;5.22;;;;;;;7.31;100.00;95996.47;1022114;29;20401;-74
2023/05/02 00:53:37;;;;;;;8.13;5.57;;;;;;;7.30;100.00;95998.25;1018404;29;20386;-73
2023/05/02 00:54:08;;;;;;;10.65;5.90;;;;;;;7.36;100.00;96006.97;1028903;28;20846;-75
2023/05/02 00:54:38;;;;;;;6.90;5.03;;;;;;;7.32;100.00;96004.03;1030266;28;20030;-74
2023/05/02 00:55:09;;;;;;;8.82;5.35;;;;;;;7.31;100.00;95999.06;1038873;28;20127;-75
2023/05/02 00:55:39;;;;;;;11.27;5.85;;;;;;;7.20;100.00;95982.41;1038312;28;20080;-74
2023/05/02 00:56:10;;;;;;;9.68;5.47;;;;;;;7.32;100.00;96003.25;1023955;28;20400;-74
2023/05/02 00:56:40;;;;;;;8.73;5.28;;;;;;;7.27;100.00;95995.31;1026465;28;20037;-74
2023/05/02 00:57:10;;;;;;;8.60;5.90;;;;;;;7.30;100.00;96003.47;1022188;29;20444;-74
2023/05/02 00:57:41;;;;;;;8.32;5.53;;;;;;;7.25;100.00;96002.59;1022241;28;20067;-74
2023/05/02 00:58:13;;;;;;;9.05;5.35;;;;;;;7.27;100.00;96003.16;1022654;28;20099;-73
2023/05/02 00:58:43;;;;;;;9.52;5.82;;;;;;;7.26;100.00;96007.59;1025738;28;20515;-73
2023/05/02 00:59:14;;;;;;;13.98;5.97;;;;;;;7.26;100.00;95997.16;1022387;29;20266;-73
2023/05/02 00:59:44;;;;;;;8.85;6.10;;;;;;;7.25;100.00;95994.78;1029974;28;20022;-75
2023/05/02 01:00:15;;;;;;;10.93;6.10;;;;;;;7.27;100.00;96000.53;1026280;28;20022;-74
2023/05/02 01:01:04;;;;;;;9.63;5.32;;;;;;;7.26;100.00;96002.34;1022377;28;20042;-75
2023/05/02 01:01:43;;;;;;;8.85;4.95;;;;;;;7.27;100.00;96003.94;1026389;28;20031;-74
2023/05/02 01:02:14;;;;;;;9.73;5.70;;;;;;;7.27;100.00;96003.94;1033900;28;20805;-75
2023/05/02 01:02:50;;;;;;;7.47;4.93;;;;;;;7.26;100.00;96002.34;1037905;28;20318;-76
2023/05/02 01:03:38;;;;;;;7.88;5.00;;;;;;;7.25;100.00;96006.00;1032250;28;20026;-75
2023/05/02 01:04:30;;;;;;;9.35;5.00;;;;;;;7.25;100.00;96005.22;1026834;28;20274;-74
2023/05/02 01:05:15;;;;;;;9.48;5.50;;;;;;;7.22;100.00;96006.47;1022160;28;20279;-75
2023/05/02 01:05:50;;;;;;;8.05;5.50;;;;;;;7.22;100.00;96000.47;1027867;28;20261;-74
2023/05/02 01:06:40;;;;;;;8.80;5.47;;;;;;;7.21;100.00;96002.28;1020224;29;20263;-74
2023/05/02 01:07:17;;;;;;;8.00;4.57;;;;;;;7.22;100.00;96003.06;1026022;28;20320;-74
2023/05/02 01:08:26;;;;;;;7.53;5.00;;;;;;;7.20;100.00;96002.50;1022350;29;21107;-74
2023/05/02 01:09:21;;;;;;;10.35;4.90;;;;;;;7.20;100.00;96002.50;1024871;28;20805;-73
2023/05/02 01:10:01;;;;;;;10.50;5.30;;;;;;;7.18;100.00;96010.59;1030104;28;20273;-74
2023/05/02 01:11:11;;;;;;;8.57;5.22;;;;;;;7.17;100.00;96006.38;1029898;28;20266;-74
2023/05/02 01:12:20;;;;;;;12.20;6.15;;;;;;;7.14;100.00;96009.44;1029969;28;20035;-73
2023/05/02 01:12:59;;;;;;;8.32;4.85;;;;;;;7.09;100.00;95996.31;1034733;28;20298;-74
2023/05/02 01:13:32;;;;;;;8.93;5.25;;;;;;;7.09;100.00;95996.31;1034251;28;20284;-73
2023/05/02 01:14:04;;;;;;;10.88;5.35;;;;;;;7.09;100.00;96001.53;1030301;28;20380;-74
2023/05/02 01:14:38;;;;;;;8.43;5.50;;;;;;;7.07;100.00;96001.75;1026343;28;20302;-74
2023/05/02 01:15:11;;;;;;;7.82;5.32;;;;;;;7.08;100.00;95998.16;1027532;28;20278;-74
2023/05/02 01:15:41;;;;;;;8.02;5.60;;;;;;;7.05;100.00;96000.44;1026256;28;20277;-74
2023/05/02 01:16:12;;;;;;;8.50;5.45;;;;;;;7.07;100.00;96003.56;1026032;28;20271;-73
2023/05/02 01:16:42;;;;;;;9.20;5.70;;;;;;;7.07;100.00;96001.75;1030016;28;20034;-74
2023/05/02 01:17:13;;;;;;;7.55;5.00;;;;;;;7.07;100.00;96003.56;1030371;28;20034;-73
2023/05/02 01:17:44;;;;;;;10.68;6.10;;;;;;;7.08;100.00;95999.97;1026089;28;20539;-74
2023/05/02 01:18:14;;;;;;;7.20;5.40;;;;;;;7.10;100.00;96008.34;1026071;28;20035;-75
2023/05/02 01:18:45;;;;;;;8.77;5.60;;;;;;;7.07;100.00;96004.38;1029698;28;20117;-75
2023/05/02 01:19:21;;;;;;;8.38;5.65;;;;;;;7.11;100.00;96006.50;1029855;28;20484;-74
2023/05/02 01:19:53;;;;;;;8.15;4.95;;;;;;;7.06;100.00;96002.00;1020873;29;20035;-73
2023/05/02 01:20:26;;;;;;;10.02;6.22;;;;;;;7.06;100.00;96002.78;1018245;29;20910;-74
2023/05/02 01:21:00;;;;;;;8.55;5.40;;;;;;;7.07;100.00;96008.78;1018545;29;20334;-75
2023/05/02 01:21:31;;;;;;;7.63;5.22;;;;;;;7.04;100.00;96004.03;1023773;28;20291;-74
2023/05/02 01:22:03;;;;;;;10.88;5.80;;;;;;;7.09;100.00;96006.75;1026006;28;20270;-73
2023/05/02 01:22:34;;;;;;;9.32;5.60;;;;;;;7.08;100.00;95999.97;1030124;28;20039;-75
2023/05/02 01:23:09;;;;;;;8.20;5.60;;;;;;;7.09;100.00;96009.38;1026253;28;20640;-73
2023/05/02 01:24:06;;;;;;;9.15;5.97;;;;;;;7.06;100.00;96009.84;1018253;29;20028;-74
2023/05/02 01:25:15;;;;;;;10.65;5.18;;;;;;;7.06;100.00;96007.22;1018084;29;20714;-73
2023/05/02 01:26:01;;;;;;;9.50;5.05;;;;;;;7.02;100.00;96006.91;1021825;29;20362;-73
2023/05/02 01:26:40;;;;;;;10.48;4.88;;;;;;;7.02;100.00;96016.53;1031717;28;20299;-73
2023/05/02 01:27:32;;;;;;;8.40;5.38;;;;;;;6.96;100.00;96001.81;1034305;28;20784;-72
2023/05/02 01:28:27;;;;;;;8.48;5.10;;;;;;;6.97;100.00;96009.41;1030181;28;20360;-74
2023/05/02 01:28:59;;;;;;;10.57;5.18;;;;;;;6.95;100.00;96018.50;1029524;28;20906;-72
2023/05/02 01:29:29;;;;;;;9.73;5.78;;;;;;;6.95;100.00;96011.47;1028382;28;20281;-74
2023/05/02 01:30:00;;;;;;;9.07;5.15;;;;;;;6.96;100.00;96014.84;1022467;28;20273;-73
2023/05/02 01:30:32;;;;;;;8.25;4.85;;;;;;;6.98;100.00;96015.44;1026304;28;20043;-74
2023/05/02 01:31:02;;;;;;;9.15;5.10;;;;;;;6.95;100.00;96010.69;1025981;28;20033;-73
2023/05/02 01:31:38;;;;;;;7.00;4.90;;;;;;;6.96;100.00;96012.25;1018211;29;20374;-73
2023/05/02 01:32:09;;;;;;;8.00;5.10;;;;;;;6.95;100.00;96016.69;1026412;28;20118;-74
2023/05/02 01:32:39;;;;;;;7.78;5.43;;;;;;;6.95;100.00;96010.69;1022221;29;20267;-75
2023/05/02 01:33:11;;;;;;;7.43;5.07;;;;;;;6.95;100.00;96013.28;1026150;28;20031;-73
2023/05/02 01:33:41;;;;;;;7.30;5.30;;;;;;;6.95;100.00;96016.69;1026046;28;20035;-75
2023/05/02 01:34:12;;;;;;;11.88;5.57;;;;;;;6.95;100.00;96010.69;1022099;29;20298;-74
2023/05/02 01:34:42;;;;;;;12.10;5.10;;;;;;;6.92;100.00;96017.16;1022780;28;20493;-72
2023/05/02 01:35:14;;;;;;;8.35;5.10;;;;;;;6.94;100.00;96014.28;1026046;28;20030;-74
2023/05/02 01:35:45;;;;;;;8.52;4.93;;;;;;;6.93;100.00;96010.09;1030370;28;20034;-74
2023/05/02 01:36:15;;;;;;;9.77;5.75;;;;;;;6.94;100.00;96009.88;1030051;28;20309;-75
2023/05/02 01:36:47;;;;;;;7.80;5.45;;;;;;;6.91;100.00;96012.97;1026001;28;20290;-74
2023/05/02 01:37:17;;;;;;;8.07;5.18;;;;;;;6.85;100.00;96006.84;1026110;28;20775;-76
2023/05/02 01:37:47;;;;;;;7.00;5.18;;;;;;;6.90;100.00;96007.97;1018603;29;20283;-74
2023/05/02 01:38:18;;;;;;;7.50;5.15;;;;;;;6.91;100.00;96019.97;1022168;28;20442;-74
2023/05/02 01:38:49;;;;;;;7.43;4.63;;;;;;;6.91;100.00;96014.75;1021653;29;20023;-74
2023/05/02 01:39:20;;;;;;;7.05;5.05;;;;;;;6.91;100.00;96019.97;1018057;29;20035;-73
2023/05/02 01:39:51;;;;;;;8.13;5.22;;;;;;;6.88;100.00;96012.63;1022082;29;20035;-74
2023/05/02 01:40:21;;;;;;;8.48;5.60;;;;;;;6.90;100.00;96018.38;1026201;28;20270;-75
2023/05/02 01:40:52;;;;;;;7.13;5.03;;;;;;;6.91;100.00;96014.75;1022204;29;20063;-74
2023/05/02 01:41:24;;;;;;;7.68;4.97;;;;;;;6.89;100.00;96012.38;1022037;29;20443;-74
2023/05/02 01:41:55;;;;;;;7.80;4.95;;;;;;;6.91;100.00;96014.75;1018934;29;20150;-74
2023/05/02 01:42:26;;;;;;;7.97;5.07;;;;;;;6.91;100.00;96017.34;1019251;29;20500;-74
2023/05/02 01:42:56;;;;;;;7.18;4.70;;;;;;;6.89;100.00;96011.59;1022405;29;20293;-74
2023/05/02 01:43:27;;;;;;;11.48;5.57;;;;;;;6.88;100.00;96010.03;1022073;29;20837;-74
2023/05/02 01:43:58;;;;;;;8.98;5.53;;;;;;;6.91;100.00;96020.78;1018216;29;20027;-74
2023/05/02 01:44:28;;;;;;;7.57;5.00;;;;;;;6.91;100.00;96025.19;1018292;29;20062;-74
2023/05/02 01:44:59;;;;;;;9.35;5.57;;;;;;;6.90;100.00;96013.19;1014235;29;20040;-74
2023/05/02 01:45:30;;;;;;;10.90;6.10;;;;;;;6.88;100.00;96021.25;1022087;29;20592;-76
2023/05/02 01:46:01;;;;;;;9.82;5.25;;;;;;;6.89;100.00;96019.44;1022069;29;20031;-72
2023/05/02 01:46:33;;;;;;;6.85;5.28;;;;;;;6.85;100.00;96022.50;1025899;28;20026;-75
2023/05/02 01:47:04;;;;;;;8.48;4.63;;;;;;;6.90;100.00;96026.22;1019391;29;20275;-75
2023/05/02 01:47:34;;;;;;;6.88;4.60;;;;;;;6.89;100.00;96019.44;1022085;29;21070;-74
2023/05/02 01:48:05;;;;;;;7.45;4.72;;;;;;;6.88;100.00;96023.06;1018849;28;20023;-74
2023/05/02 01:48:36;;;;;;;7.75;5.03;;;;;;;6.84;100.00;96017.50;1025920;28;20125;-75
2023/05/02 01:49:06;;;;;;;6.22;4.53;;;;;;;6.84;100.00;96020.91;1025452;28;20023;-73
2023/05/02 01:49:37;;;;;;;7.10;5.18;;;;;;;6.83;100.00;96014.09;1026279;28;20034;-75
2023/05/02 01:50:10;;;;;;;9.65;5.32;;;;;;;6.90;100.00;96024.41;1026099;28;20060;-74
2023/05/02 01:50:43;;;;;;;6.30;4.32;;;;;;;6.89;100.00;96032.47;1025558;28;20034;-74
2023/05/02 01:51:14;;;;;;;8.88;5.50;;;;;;;6.77;100.00;96009.00;1026983;28;20768;-74
2023/05/02 01:51:48;;;;;;;6.13;4.40;;;;;;;6.88;100.00;96020.47;1022861;28;20370;-74
2023/05/02 01:52:19;;;;;;;7.97;4.72;;;;;;;6.88;100.00;96031.69;1027257;28;20109;-74
2023/05/02 01:52:51;;;;;;;8.27;5.32;;;;;;;6.89;100.00;96027.25;1022023;29;20270;-76
2023/05/02 01:53:22;;;;;;;7.35;5.00;;;;;;;6.89;100.00;96024.63;1022097;29;20274;-73
2023/05/02 01:53:53;;;;;;;7.97;5.00;;;;;;;6.91;100.00;96030.41;1022095;29;20271;-74
2023/05/02 01:54:23;;;;;;;7.43;5.03;;;;;;;6.88;100.00;96023.84;1030101;28;20269;-74
2023/05/02 01:54:54;;;;;;;7.20;4.22;;;;;;;6.88;100.00;96025.69;1029894;28;20057;-75
2023/05/02 01:55:24;;;;;;;9.65;5.75;;;;;;;6.88;100.00;96025.69;1030118;28;20029;-75
2023/05/02 01:55:55;;;;;;;8.95;4.78;;;;;;;6.82;100.00;96022.16;1021772;29;20059;-73
2023/05/02 01:56:25;;;;;;;9.80;5.13;;;;;;;6.83;100.00;96024.53;1030073;28;20030;-75
2023/05/02 01:56:56;;;;;;;8.65;4.60;;;;;;;6.84;100.00;96028.75;1026105;28;20030;-74
2023/05/02 01:57:26;;;;;;;7.28;4.70;;;;;;;6.87;100.00;96030.06;1013931;29;20036;-74
2023/05/02 01:57:57;;;;;;;7.15;4.78;;;;;;;6.82;100.00;96025.56;1014341;29;20044;-73
2023/05/02 01:58:27;;;;;;;7.50;4.45;;;;;;;6.84;100.00;96028.75;1025980;28;20114;-73
2023/05/02 01:58:58;;;;;;;8.57;4.90;;;;;;;6.84;100.00;96022.72;1021477;28;20067;-74
2023/05/02 01:59:28;;;;;;;8.15;5.43;;;;;;;6.85;100.00;96030.31;1025910;28;20082;-74
2023/05/02 01:59:59;;;;;;;7.20;4.88;;;;;;;6.82;100.00;96027.38;1025965;28;20029;-73
2023/05/02 02:00:30;;;;;;;8.10;5.05;;;;;;;6.83;100.00;96029.75;1026152;28;20050;-73
2023/05/02 02:01:01;;;;;;;6.22;4.55;;;;;;;6.83;100.00;96027.13;1025993;28;20745;-71
2023/05/02 02:01:31;;;;;;;8.45;5.13;;;;;;;6.85;100.00;96032.94;1021748;29;20270;-74
2023/05/02 02:02:02;;;;;;;8.80;5.68;;;;;;;6.83;100.00;96027.13;1020373;29;20029;-72
2023/05/02 02:02:33;;;;;;;7.95;4.97;;;;;;;6.84;100.00;96033.16;1024920;28;20027;-74
2023/05/02 02:03:04;;;;;;;9.60;5.55;;;;;;;6.84;100.00;96033.97;1020134;28;20030;-74
2023/05/02 02:03:35;;;;;;;7.30;4.95;;;;;;;6.84;100.00;96033.97;1022078;28;20055;-73
2023/05/02 02:04:07;;;;;;;6.93;4.78;;;;;;;6.79;100.00;96018.19;1026000;28;20307;-74
2023/05/02 02:04:38;;;;;;;8.20;4.80;;;;;;;6.84;100.00;96023.53;1027538;28;20479;-74
2023/05/02 02:05:09;;;;;;;7.80;5.00;;;;;;;6.82;100.00;96028.16;1022082;29;20251;-75
2023/05/02 02:05:39;;;;;;;8.13;4.57;;;;;;;6.83;100.00;96027.13;1020404;29;20510;-74
2023/05/02 02:06:10;;;;;;;7.60;5.13;;;;;;;6.84;100.00;96026.13;1029438;28;20250;-74
2023/05/02 02:06:43;;;;;;;10.32;5.53;;;;;;;6.83;100.00;96023.75;1024544;28;20018;-74
2023/05/02 02:07:13;;;;;;;7.47;4.93;;;;;;;6.85;100.00;96035.53;1030071;28;20110;-73
2023/05/02 02:07:44;;;;;;;7.35;4.60;;;;;;;6.86;100.00;96025.88;1026688;28;20289;-74
2023/05/02 02:08:14;;;;;;;7.78;5.10;;;;;;;6.87;100.00;96021.47;1022269;28;20015;-74
2023/05/02 02:08:45;;;;;;;7.18;4.57;;;;;;;6.88;100.00;96026.47;1025110;28;20023;-74
2023/05/02 02:09:15;;;;;;;9.25;4.80;;;;;;;6.88;100.00;96033.50;1025798;28;20027;-74
2023/05/02 02:09:46;;;;;;;7.28;4.93;;;;;;;6.88;100.00;96026.47;1025657;28;20489;-74
2023/05/02 02:10:16;;;;;;;9.00;5.47;;;;;;;6.88;100.00;96036.09;1022191;29;20031;-75
2023/05/02 02:10:49;;;;;;;8.32;4.75;;;;;;;6.88;100.00;96030.91;1018026;29;20030;-75
2023/05/02 02:11:25;;;;;;;11.30;4.95;;;;;;;6.81;100.00;96028.41;1022909;28;20566;-74
2023/05/02 02:11:56;;;;;;;6.97;5.00;;;;;;;6.87;100.00;96037.09;1017924;29;20259;-74
2023/05/02 02:12:28;;;;;;;7.05;4.80;;;;;;;6.83;100.00;96028.97;1018113;29;20259;-74
2023/05/02 02:13:03;;;;;;;6.78;4.63;;;;;;;6.87;100.00;96034.50;1026676;28;20027;-74
2023/05/02 02:13:36;;;;;;;8.93;5.18;;;;;;;6.82;100.00;96027.38;1029158;28;20285;-73
2023/05/02 02:14:11;;;;;;;6.85;4.63;;;;;;;6.86;100.00;96033.72;1021838;29;20267;-73
2023/05/02 02:14:42;;;;;;;7.88;4.50;;;;;;;6.80;100.00;96025.00;1025597;28;20779;-73
2023/05/02 02:15:18;;;;;;;8.70;5.13;;;;;;;6.85;100.00;96035.53;1026084;28;20300;-74
2023/05/02 02:15:49;;;;;;;10.05;5.07;;;;;;;6.83;100.00;96029.75;1025971;28;20246;-75
2023/05/02 02:16:23;;;;;;;7.65;5.25;;;;;;;6.85;100.00;96030.31;1029507;28;20268;-75
2023/05/02 02:16:54;;;;;;;8.43;4.90;;;;;;;6.85;100.00;96035.53;1022185;29;20034;-76
2023/05/02 02:17:26;;;;;;;9.50;5.30;;;;;;;6.84;100.00;96028.75;1017967;29;20267;-74
2023/05/02 02:18:00;;;;;;;7.88;5.20;;;;;;;6.89;100.00;96027.25;1009985;29;20295;-74
2023/05/02 02:18:36;;;;;;;7.43;5.25;;;;;;;6.90;100.00;96028.81;1022047;29;20285;-75
2023/05/02 02:19:07;;;;;;;9.77;5.50;;;;;;;6.88;100.00;96029.06;1017740;29;20259;-73
2023/05/02 02:19:38;;;;;;;7.90;5.13;;;;;;;6.85;100.00;96030.31;1018126;29;20363;-75
2023/05/02 02:20:11;;;;;;;6.80;4.72;;;;;;;6.90;100.00;96039.25;1025620;28;20340;-74
2023/05/02 02:20:42;;;;;;;7.03;4.75;;;;;;;6.84;100.00;96018.31;1025982;28;20651;-74
2023/05/02 02:21:13;;;;;;;8.43;4.97;;;;;;;6.90;100.00;96034.03;1030612;28;20348;-74
2023/05/02 02:21:43;;;;;;;9.63;5.63;;;;;;;6.89;100.00;96037.69;1036472;28;20276;-74
2023/05/02 02:22:14;;;;;;;7.38;4.97;;;;;;;6.90;100.00;96034.03;1022109;29;20485;-74
2023/05/02 02:22:44;;;;;;;8.65;5.40;;;;;;;6.89;100.00;96038.47;1022948;29;20027;-74
2023/05/02 02:23:15;;;;;;;7.93;5.20;;;;;;;6.74;100.00;96012.09;1026850;28;20118;-73
2023/05/02 02:23:46;;;;;;;8.82;5.28;;;;;;;6.87;100.00;96035.28;1027239;28;20023;-74
2023/05/02 02:24:17;;;;;;;6.97;4.75;;;;;;;6.88;100.00;96028.28;1030503;28;20030;-75
2023/05/02 02:24:48;;;;;;;7.22;4.70;;;;;;;6.88;100.00;96030.91;1022649;28;20263;-74
2023/05/02 02:25:18;;;;;;;7.95;5.38;;;;;;;6.88;100.00;96023.84;1022429;28;20023;-74
2023/05/02 02:25:49;;;;;;;7.93;4.72;;;;;;;6.90;100.00;96036.66;1022372;29;20589;-75
2023/05/02 02:26:20;;;;;;;8.82;5.70;;;;;;;6.89;100.00;96035.06;1014691;29;20040;-75
2023/05/02 02:26:50;;;;;;;8.68;5.20;;;;;;;6.84;100.00;96031.34;1022488;29;20042;-74
2023/05/02 02:27:21;;;;;;;8.55;5.07;;;;;;;6.90;100.00;96028.81;1023693;28;20122;-74
2023/05/02 02:27:51;;;;;;;6.78;4.85;;;;;;;6.82;100.00;96017.75;1026817;28;20073;-72
2023/05/02 02:28:22;;;;;;;8.18;5.38;;;;;;;6.89;100.00;96037.69;1016535;29;20056;-74
2023/05/02 02:28:52;;;;;;;9.20;4.70;;;;;;;6.88;100.00;96025.69;1022042;29;20771;-74
2023/05/02 02:29:23;;;;;;;8.73;5.50;;;;;;;6.90;100.00;96040.03;1030622;28;20035;-73
2023/05/02 02:29:53;;;;;;;7.63;4.75;;;;;;;6.89;100.00;96035.06;1026625;28;20040;-74
2023/05/02 02:30:23;;;;;;;9.15;5.72;;;;;;;6.91;100.00;96038.22;1026169;28;20477;-73
2023/05/02 02:30:54;;;;;;;9.00;5.75;;;;;;;6.92;100.00;96032.00;1026812;28;20030;-74
2023/05/02 02:31:32;;;;;;;8.25;5.05;;;;;;;6.92;100.00;96032.00;1022572;29;20028;-74
2023/05/02 02:32:03;;;;;;;9.98;5.20;;;;;;;6.92;100.00;96029.41;1023629;28;20066;-74
2023/05/02 02:32:33;;;;;;;8.52;5.38;;;;;;;6.91;100.00;96031.22;1023577;28;20362;-74